LDZALDSP

Guest
Details From LDZA - Zagreb
To LDSP - SPLIT
Flight Number -
Tags generated
Created
Modified
Stats Distance 133 nm / 246 km
Max Altitude 11,700 ft / 3,566 m
Waypoints 3
Social Downloads 0
Likes 0
Share VATSIM

Download

Looking for another format? Having issues loading an existing format? Contact us
Advertisement - Login to hide

Notes

Basic altitude profile: - Ascent Rate: 2500ft/min - Ascent Speed: 250kts - Cruise Altitude: 35000ft - Cruise Speed: 420kts - Descent Rate: 1500ft/min - Descent Speed: 250kts Options: - Use NATs: no - Use PACOTS: no - Use low airways: yes - Use high airways: no

Route

LDZA SONIK LDSP

ID Type Via Altitude Latitude Longitude Leg Dist Tot Dist Heading (true) Name
O LDZA APT - 0 ft / 0 m 45.74189˚ 16.06720˚ - 0 nm - Zagreb
SONIK FIX - 11,700 ft / 3,566 m 44.44833˚ 16.14333˚ 77 nm 77 nm 178° / 178° -
O LDSP APT - 0 ft / 0 m 43.53903˚ 16.29811˚ 55 nm 132 nm 173° / 173° SPLIT

Altitude Profile

Advertisement - Login to hide

LDZA

Details ICAO LDZA (ZAG)
Name Zagreb
Region Croatia
Timezone Europe/Zagreb (UTC+1.0)
Stats Elevation 353 ft / 108 m (AMSL)
Location 45.741890° 16.067200°
Runways 1
Magnetic Variation 3.958° E

METAR

LDZA 112130Z 19017G27KT 140V220 CAVOK 15/06 Q0999 NOSIG

Decode

TAF

TAF LDZA 111725Z 1118/1218 20015KT CAVOK TX16/1212Z TN08/1217Z TEMPO 1118/1120 20025G35KT PROB30 TEMPO 1120/1208 20020G30KT BECMG 1210/1212 23010KT BECMG 1213/1215 32010KT TEMPO 1213/1218 RA BKN014 PROB40 TEMPO 1213/1216 4000 SHRA SCT020TCU BKN030

Decode

Departure Runways

ID Width Length Bearing (true) Bearing (mag) Surface Threshold Offset Overrun Length
05 148 ft / 45 m 10,659 ft / 3,249 m 46.69° 42.73° Asphalt 0 ft / 0 m 195 ft / 59 m
23 148 ft / 45 m 10,659 ft / 3,249 m 226.71° 222.75° Asphalt 0 ft / 0 m 195 ft / 59 m

LDSP

Details ICAO LDSP (SPU)
Name SPLIT
Region Croatia
Timezone Europe/Zagreb (UTC+1.0)
Stats Elevation 79 ft / 24 m (AMSL)
Location 43.539026° 16.298112°
Runways 1
Magnetic Variation 3.836° E

METAR

LDSP 112130Z AUTO 14011KT 9999 BKN065/// 16/10 Q1011

Decode

TAF

TAF LDSP 111725Z 1118/1218 15015KT 9999 BKN040 TX16/1212Z TN13/1206Z TEMPO 1118/1120 15020G30KT

Decode

Destination Runways

ID Width Length Bearing (true) Bearing (mag) Surface Threshold Offset Overrun Length
05 148 ft / 45 m 8,357 ft / 2,547 m 52.48° 48.64° Asphalt 0 ft / 0 m 76 ft / 23 m
23 148 ft / 45 m 8,357 ft / 2,547 m 232.50° 228.66° Asphalt 525 ft / 160 m 820 ft / 250 m

Approach Navaids

Runway Type Ident Frequency Range Bearing (true) Bearing (mag) Slope Elevation
05 Localiser IST 110.50 MHz 25 nm / 46 km 52.57° 48.73° - 69 ft / 21 m (AMSL)
05 Glidescope IST 110.50 MHz 25 nm / 46 km 52.57° 48.73° 3.00° 52 ft / 16 m (AMSL)

Popular Alternatives